sensor_id;sensor_type;location;lat;lon;timestamp;temperature;humidity
9845;DHT22;4961;50.782;6.080;2022-09-03T00:00:29;19.70;96.40
9845;DHT22;4961;50.782;6.080;2022-09-03T00:03:08;19.70;95.20
9845;DHT22;4961;50.782;6.080;2022-09-03T00:05:44;19.60;96.00
9845;DHT22;4961;50.782;6.080;2022-09-03T00:08:20;19.70;96.50
9845;DHT22;4961;50.782;6.080;2022-09-03T00:10:54;19.60;96.20
9845;DHT22;4961;50.782;6.080;2022-09-03T00:13:28;19.60;97.00
9845;DHT22;4961;50.782;6.080;2022-09-03T00:16:04;19.60;97.20
9845;DHT22;4961;50.782;6.080;2022-09-03T00:18:42;19.60;96.90
9845;DHT22;4961;50.782;6.080;2022-09-03T00:21:14;19.50;96.50
9845;DHT22;4961;50.782;6.080;2022-09-03T00:23:46;19.50;96.10
9845;DHT22;4961;50.782;6.080;2022-09-03T00:26:21;19.50;95.80
9845;DHT22;4961;50.782;6.080;2022-09-03T00:28:56;19.50;95.80
9845;DHT22;4961;50.782;6.080;2022-09-03T00:31:31;19.50;96.20
9845;DHT22;4961;50.782;6.080;2022-09-03T00:34:06;19.50;96.50
9845;DHT22;4961;50.782;6.080;2022-09-03T00:36:39;19.50;96.30
9845;DHT22;4961;50.782;6.080;2022-09-03T00:39:11;19.50;96.90
9845;DHT22;4961;50.782;6.080;2022-09-03T00:41:47;19.50;96.90
9845;DHT22;4961;50.782;6.080;2022-09-03T00:44:37;19.40;96.40
9845;DHT22;4961;50.782;6.080;2022-09-03T00:47:21;19.40;97.10
9845;DHT22;4961;50.782;6.080;2022-09-03T00:50:02;19.40;97.10
9845;DHT22;4961;50.782;6.080;2022-09-03T00:52:49;19.40;96.70
9845;DHT22;4961;50.782;6.080;2022-09-03T00:55:30;19.30;96.90
9845;DHT22;4961;50.782;6.080;2022-09-03T00:58:22;19.30;97.60
9845;DHT22;4961;50.782;6.080;2022-09-03T01:00:54;19.30;97.40
9845;DHT22;4961;50.782;6.080;2022-09-03T01:03:33;19.30;97.50
9845;DHT22;4961;50.782;6.080;2022-09-03T01:06:16;19.20;97.50
9845;DHT22;4961;50.782;6.080;2022-09-03T01:09:04;19.20;97.60
9845;DHT22;4961;50.782;6.080;2022-09-03T01:11:42;19.20;97.50
9845;DHT22;4961;50.782;6.080;2022-09-03T01:14:25;19.20;97.70
9845;DHT22;4961;50.782;6.080;2022-09-03T01:17:02;19.20;97.90
9845;DHT22;4961;50.782;6.080;2022-09-03T01:19:55;19.20;98.40
9845;DHT22;4961;50.782;6.080;2022-09-03T01:23:08;19.10;97.60
9845;DHT22;4961;50.782;6.080;2022-09-03T01:25:51;19.10;97.60
9845;DHT22;4961;50.782;6.080;2022-09-03T01:28:41;19.10;97.50
9845;DHT22;4961;50.782;6.080;2022-09-03T01:31:19;19.10;98.20
9845;DHT22;4961;50.782;6.080;2022-09-03T01:34:00;19.10;98.10
9845;DHT22;4961;50.782;6.080;2022-09-03T01:36:36;19.00;97.70
9845;DHT22;4961;50.782;6.080;2022-09-03T01:39:15;19.00;98.90
9845;DHT22;4961;50.782;6.080;2022-09-03T01:41:53;19.00;97.80
9845;DHT22;4961;50.782;6.080;2022-09-03T01:45:14;19.00;98.90
9845;DHT22;4961;50.782;6.080;2022-09-03T01:47:58;19.00;98.10
9845;DHT22;4961;50.782;6.080;2022-09-03T01:50:37;19.00;98.70
9845;DHT22;4961;50.782;6.080;2022-09-03T01:53:12;19.00;99.30
9845;DHT22;4961;50.782;6.080;2022-09-03T01:55:57;19.00;99.80
9845;DHT22;4961;50.782;6.080;2022-09-03T01:58:38;19.00;99.20
9845;DHT22;4961;50.782;6.080;2022-09-03T02:01:14;19.00;99.50
9845;DHT22;4961;50.782;6.080;2022-09-03T02:03:45;19.00;99.90
9845;DHT22;4961;50.782;6.080;2022-09-03T02:06:14;19.00;99.90
9845;DHT22;4961;50.782;6.080;2022-09-03T02:08:47;19.00;99.90
9845;DHT22;4961;50.782;6.080;2022-09-03T02:11:16;19.00;99.90
9845;DHT22;4961;50.782;6.080;2022-09-03T02:13:48;19.00;99.90
9845;DHT22;4961;50.782;6.080;2022-09-03T02:16:22;19.00;99.90
9845;DHT22;4961;50.782;6.080;2022-09-03T02:18:55;19.00;99.90
9845;DHT22;4961;50.782;6.080;2022-09-03T02:21:28;19.00;99.90
9845;DHT22;4961;50.782;6.080;2022-09-03T02:24:02;19.10;99.90
9845;DHT22;4961;50.782;6.080;2022-09-03T02:26:31;19.10;99.90
9845;DHT22;4961;50.782;6.080;2022-09-03T02:29:01;19.10;99.90
9845;DHT22;4961;50.782;6.080;2022-09-03T02:31:31;19.10;99.90
9845;DHT22;4961;50.782;6.080;2022-09-03T02:34:00;19.20;99.90
9845;DHT22;4961;50.782;6.080;2022-09-03T02:36:33;19.20;99.90
9845;DHT22;4961;50.782;6.080;2022-09-03T02:39:03;19.20;99.90
9845;DHT22;4961;50.782;6.080;2022-09-03T02:41:32;19.20;99.90
9845;DHT22;4961;50.782;6.080;2022-09-03T02:44:03;19.30;99.90
9845;DHT22;4961;50.782;6.080;2022-09-03T02:46:39;19.30;99.70
9845;DHT22;4961;50.782;6.080;2022-09-03T02:49:09;19.30;99.90
9845;DHT22;4961;50.782;6.080;2022-09-03T02:51:40;19.40;99.90
9845;DHT22;4961;50.782;6.080;2022-09-03T02:54:10;19.30;99.90
9845;DHT22;4961;50.782;6.080;2022-09-03T02:56:45;19.30;99.90
9845;DHT22;4961;50.782;6.080;2022-09-03T02:59:16;19.40;99.90
9845;DHT22;4961;50.782;6.080;2022-09-03T03:01:47;19.40;99.90
9845;DHT22;4961;50.782;6.080;2022-09-03T03:04:17;19.40;99.90
9845;DHT22;4961;50.782;6.080;2022-09-03T03:06:46;19.40;99.90
9845;DHT22;4961;50.782;6.080;2022-09-03T03:09:17;19.40;99.90
9845;DHT22;4961;50.782;6.080;2022-09-03T03:11:46;19.30;99.90
9845;DHT22;4961;50.782;6.080;2022-09-03T03:14:17;19.30;99.90
9845;DHT22;4961;50.782;6.080;2022-09-03T03:16:47;19.30;99.90
9845;DHT22;4961;50.782;6.080;2022-09-03T03:19:17;19.30;99.90
9845;DHT22;4961;50.782;6.080;2022-09-03T03:21:46;19.30;99.90
9845;DHT22;4961;50.782;6.080;2022-09-03T03:24:16;19.30;99.90
9845;DHT22;4961;50.782;6.080;2022-09-03T03:30:25;19.30;99.90
9845;DHT22;4961;50.782;6.080;2022-09-03T03:32:56;19.30;99.90
9845;DHT22;4961;50.782;6.080;2022-09-03T03:35:25;19.30;99.90
9845;DHT22;4961;50.782;6.080;2022-09-03T03:37:56;19.30;99.90
9845;DHT22;4961;50.782;6.080;2022-09-03T03:40:24;19.20;99.90
9845;DHT22;4961;50.782;6.080;2022-09-03T03:42:56;19.20;99.90
9845;DHT22;4961;50.782;6.080;2022-09-03T03:45:25;19.20;99.90
9845;DHT22;4961;50.782;6.080;2022-09-03T03:47:58;19.20;99.90
9845;DHT22;4961;50.782;6.080;2022-09-03T03:50:26;19.10;99.90
9845;DHT22;4961;50.782;6.080;2022-09-03T03:52:58;19.10;99.90
9845;DHT22;4961;50.782;6.080;2022-09-03T03:55:27;19.10;99.90
9845;DHT22;4961;50.782;6.080;2022-09-03T03:58:01;19.10;99.90
9845;DHT22;4961;50.782;6.080;2022-09-03T04:00:30;19.00;99.90
9845;DHT22;4961;50.782;6.080;2022-09-03T04:03:04;19.00;99.90
9845;DHT22;4961;50.782;6.080;2022-09-03T04:05:33;19.00;99.90
9845;DHT22;4961;50.782;6.080;2022-09-03T04:08:04;19.00;99.90
9845;DHT22;4961;50.782;6.080;2022-09-03T04:10:32;19.00;99.90
9845;DHT22;4961;50.782;6.080;2022-09-03T04:13:01;19.00;99.90
9845;DHT22;4961;50.782;6.080;2022-09-03T04:15:29;19.00;99.90
9845;DHT22;4961;50.782;6.080;2022-09-03T04:17:58;19.00;99.90
9845;DHT22;4961;50.782;6.080;2022-09-03T04:20:27;18.90;99.90
9845;DHT22;4961;50.782;6.080;2022-09-03T04:22:59;18.90;99.90
9845;DHT22;4961;50.782;6.080;2022-09-03T04:25:28;18.90;99.90
9845;DHT22;4961;50.782;6.080;2022-09-03T04:27:56;18.80;99.90
9845;DHT22;4961;50.782;6.080;2022-09-03T04:30:24;18.80;99.90
9845;DHT22;4961;50.782;6.080;2022-09-03T04:32:53;18.80;99.90
9845;DHT22;4961;50.782;6.080;2022-09-03T04:35:23;18.80;99.90
9845;DHT22;4961;50.782;6.080;2022-09-03T04:37:53;18.80;99.90
9845;DHT22;4961;50.782;6.080;2022-09-03T04:40:23;18.80;99.90
9845;DHT22;4961;50.782;6.080;2022-09-03T04:42:56;18.70;99.90
9845;DHT22;4961;50.782;6.080;2022-09-03T04:45:25;18.70;99.90
9845;DHT22;4961;50.782;6.080;2022-09-03T04:47:56;18.60;99.90
9845;DHT22;4961;50.782;6.080;2022-09-03T04:50:24;18.50;99.90
9845;DHT22;4961;50.782;6.080;2022-09-03T04:53:01;18.50;99.90
9845;DHT22;4961;50.782;6.080;2022-09-03T04:55:34;18.50;99.90
9845;DHT22;4961;50.782;6.080;2022-09-03T04:58:03;18.50;99.90
9845;DHT22;4961;50.782;6.080;2022-09-03T05:00:35;18.50;99.90
9845;DHT22;4961;50.782;6.080;2022-09-03T05:03:04;18.50;99.90
9845;DHT22;4961;50.782;6.080;2022-09-03T05:05:32;18.40;99.90
9845;DHT22;4961;50.782;6.080;2022-09-03T05:08:03;18.50;99.90
9845;DHT22;4961;50.782;6.080;2022-09-03T05:10:32;18.40;99.90
9845;DHT22;4961;50.782;6.080;2022-09-03T05:13:02;18.40;99.90
9845;DHT22;4961;50.782;6.080;2022-09-03T05:15:32;18.30;99.90
9845;DHT22;4961;50.782;6.080;2022-09-03T05:18:01;18.40;99.90
9845;DHT22;4961;50.782;6.080;2022-09-03T05:20:30;18.30;99.90
9845;DHT22;4961;50.782;6.080;2022-09-03T05:23:02;18.30;99.90
9845;DHT22;4961;50.782;6.080;2022-09-03T05:25:31;18.30;99.90
9845;DHT22;4961;50.782;6.080;2022-09-03T05:27:59;18.30;99.90
9845;DHT22;4961;50.782;6.080;2022-09-03T05:30:29;18.20;99.90
9845;DHT22;4961;50.782;6.080;2022-09-03T05:32:58;18.20;99.90
9845;DHT22;4961;50.782;6.080;2022-09-03T05:35:29;18.20;99.90
9845;DHT22;4961;50.782;6.080;2022-09-03T05:37:57;18.20;99.90
9845;DHT22;4961;50.782;6.080;2022-09-03T05:40:28;18.20;99.90
9845;DHT22;4961;50.782;6.080;2022-09-03T05:42:58;18.20;99.90
9845;DHT22;4961;50.782;6.080;2022-09-03T05:45:29;18.20;99.90
9845;DHT22;4961;50.782;6.080;2022-09-03T05:47:59;18.20;99.90
9845;DHT22;4961;50.782;6.080;2022-09-03T05:50:27;18.20;99.90
9845;DHT22;4961;50.782;6.080;2022-09-03T05:52:57;18.20;99.90
9845;DHT22;4961;50.782;6.080;2022-09-03T05:55:26;18.20;99.90
9845;DHT22;4961;50.782;6.080;2022-09-03T05:57:56;18.20;99.90
9845;DHT22;4961;50.782;6.080;2022-09-03T06:00:25;18.20;99.90
9845;DHT22;4961;50.782;6.080;2022-09-03T06:02:55;18.30;99.90
9845;DHT22;4961;50.782;6.080;2022-09-03T06:05:24;18.30;99.90
9845;DHT22;4961;50.782;6.080;2022-09-03T06:07:52;18.30;99.90
9845;DHT22;4961;50.782;6.080;2022-09-03T06:10:20;18.40;99.90
9845;DHT22;4961;50.782;6.080;2022-09-03T06:12:56;18.30;99.90
9845;DHT22;4961;50.782;6.080;2022-09-03T06:15:27;18.30;99.90
9845;DHT22;4961;50.782;6.080;2022-09-03T06:17:55;18.30;99.90
9845;DHT22;4961;50.782;6.080;2022-09-03T06:20:24;18.30;99.90
9845;DHT22;4961;50.782;6.080;2022-09-03T06:22:55;18.40;99.90
9845;DHT22;4961;50.782;6.080;2022-09-03T06:25:24;18.40;99.90
9845;DHT22;4961;50.782;6.080;2022-09-03T06:27:53;18.40;99.90
9845;DHT22;4961;50.782;6.080;2022-09-03T06:30:23;18.40;99.90
9845;DHT22;4961;50.782;6.080;2022-09-03T06:32:53;18.40;99.90
9845;DHT22;4961;50.782;6.080;2022-09-03T06:35:25;18.40;99.90
9845;DHT22;4961;50.782;6.080;2022-09-03T06:37:55;18.40;99.90
9845;DHT22;4961;50.782;6.080;2022-09-03T06:40:23;18.50;99.90
9845;DHT22;4961;50.782;6.080;2022-09-03T06:42:56;18.60;99.90
9845;DHT22;4961;50.782;6.080;2022-09-03T06:45:30;18.60;99.90
9845;DHT22;4961;50.782;6.080;2022-09-03T06:47:58;18.70;99.90
9845;DHT22;4961;50.782;6.080;2022-09-03T06:50:27;18.70;99.90
9845;DHT22;4961;50.782;6.080;2022-09-03T06:53:00;18.80;99.90
9845;DHT22;4961;50.782;6.080;2022-09-03T06:55:28;18.90;99.90
9845;DHT22;4961;50.782;6.080;2022-09-03T06:57:57;18.90;99.90
9845;DHT22;4961;50.782;6.080;2022-09-03T07:00:25;19.00;99.90
9845;DHT22;4961;50.782;6.080;2022-09-03T07:02:58;19.00;99.90
9845;DHT22;4961;50.782;6.080;2022-09-03T07:05:28;19.10;99.90
9845;DHT22;4961;50.782;6.080;2022-09-03T07:07:57;19.20;99.90
9845;DHT22;4961;50.782;6.080;2022-09-03T07:10:26;19.20;99.90
9845;DHT22;4961;50.782;6.080;2022-09-03T07:12:54;19.20;99.90
9845;DHT22;4961;50.782;6.080;2022-09-03T07:15:23;19.30;99.90
9845;DHT22;4961;50.782;6.080;2022-09-03T07:17:52;19.40;99.90
9845;DHT22;4961;50.782;6.080;2022-09-03T07:20:22;19.40;99.90
9845;DHT22;4961;50.782;6.080;2022-09-03T07:22:54;19.40;99.90
9845;DHT22;4961;50.782;6.080;2022-09-03T07:25:24;19.50;99.90
9845;DHT22;4961;50.782;6.080;2022-09-03T07:27:53;19.50;99.90
9845;DHT22;4961;50.782;6.080;2022-09-03T07:30:21;19.60;99.90
9845;DHT22;4961;50.782;6.080;2022-09-03T07:32:53;19.70;99.90
9845;DHT22;4961;50.782;6.080;2022-09-03T07:35:23;19.70;99.90
9845;DHT22;4961;50.782;6.080;2022-09-03T07:37:53;19.80;99.90
9845;DHT22;4961;50.782;6.080;2022-09-03T07:40:22;19.80;99.90
9845;DHT22;4961;50.782;6.080;2022-09-03T07:42:55;19.90;99.90
9845;DHT22;4961;50.782;6.080;2022-09-03T07:45:24;19.90;99.90
9845;DHT22;4961;50.782;6.080;2022-09-03T07:47:55;20.00;99.90
9845;DHT22;4961;50.782;6.080;2022-09-03T07:50:25;20.00;99.90
9845;DHT22;4961;50.782;6.080;2022-09-03T07:52:57;20.00;99.90
9845;DHT22;4961;50.782;6.080;2022-09-03T07:55:26;20.10;99.90
9845;DHT22;4961;50.782;6.080;2022-09-03T07:57:55;20.20;99.90
9845;DHT22;4961;50.782;6.080;2022-09-03T08:00:24;20.20;99.90
9845;DHT22;4961;50.782;6.080;2022-09-03T08:02:54;20.30;99.90
9845;DHT22;4961;50.782;6.080;2022-09-03T08:05:27;20.30;99.90
9845;DHT22;4961;50.782;6.080;2022-09-03T08:07:55;20.40;99.90
9845;DHT22;4961;50.782;6.080;2022-09-03T08:10:33;20.40;99.90
9845;DHT22;4961;50.782;6.080;2022-09-03T08:13:06;20.50;99.90
9845;DHT22;4961;50.782;6.080;2022-09-03T08:15:41;20.60;99.90
9845;DHT22;4961;50.782;6.080;2022-09-03T08:18:15;20.70;99.90
9845;DHT22;4961;50.782;6.080;2022-09-03T08:20:45;20.80;99.90
9845;DHT22;4961;50.782;6.080;2022-09-03T08:23:13;20.80;99.90
9845;DHT22;4961;50.782;6.080;2022-09-03T08:25:42;20.90;99.90
9845;DHT22;4961;50.782;6.080;2022-09-03T08:28:15;20.90;99.90
9845;DHT22;4961;50.782;6.080;2022-09-03T08:30:45;21.00;99.90
9845;DHT22;4961;50.782;6.080;2022-09-03T08:33:14;21.00;99.90
9845;DHT22;4961;50.782;6.080;2022-09-03T08:36:06;21.00;99.90
9845;DHT22;4961;50.782;6.080;2022-09-03T08:38:38;21.10;99.90
9845;DHT22;4961;50.782;6.080;2022-09-03T08:41:19;21.20;99.90
9845;DHT22;4961;50.782;6.080;2022-09-03T08:44:05;21.30;99.90
9845;DHT22;4961;50.782;6.080;2022-09-03T08:46:42;21.30;99.90
9845;DHT22;4961;50.782;6.080;2022-09-03T08:49:19;21.30;99.90
9845;DHT22;4961;50.782;6.080;2022-09-03T08:51:55;21.40;99.90
9845;DHT22;4961;50.782;6.080;2022-09-03T08:54:28;21.50;99.90
9845;DHT22;4961;50.782;6.080;2022-09-03T08:57:00;21.50;99.90
9845;DHT22;4961;50.782;6.080;2022-09-03T08:59:29;21.60;99.90
9845;DHT22;4961;50.782;6.080;2022-09-03T09:02:09;21.50;99.90
9845;DHT22;4961;50.782;6.080;2022-09-03T09:04:52;21.50;99.90
9845;DHT22;4961;50.782;6.080;2022-09-03T09:07:31;21.60;99.90
9845;DHT22;4961;50.782;6.080;2022-09-03T09:10:07;21.70;99.90
9845;DHT22;4961;50.782;6.080;2022-09-03T09:12:43;21.80;99.90
9845;DHT22;4961;50.782;6.080;2022-09-03T09:15:18;21.90;99.90
9845;DHT22;4961;50.782;6.080;2022-09-03T09:18:09;21.90;99.90
9845;DHT22;4961;50.782;6.080;2022-09-03T09:20:45;22.00;99.90
9845;DHT22;4961;50.782;6.080;2022-09-03T09:23:27;22.10;99.90
9845;DHT22;4961;50.782;6.080;2022-09-03T09:25:59;22.20;99.90
9845;DHT22;4961;50.782;6.080;2022-09-03T09:28:34;22.20;99.90
9845;DHT22;4961;50.782;6.080;2022-09-03T09:31:06;22.20;99.90
9845;DHT22;4961;50.782;6.080;2022-09-03T09:33:38;22.30;99.90
9845;DHT22;4961;50.782;6.080;2022-09-03T09:36:09;22.40;99.90
9845;DHT22;4961;50.782;6.080;2022-09-03T09:38:45;22.40;99.90
9845;DHT22;4961;50.782;6.080;2022-09-03T09:41:15;22.40;99.90
9845;DHT22;4961;50.782;6.080;2022-09-03T09:43:45;22.50;99.90
9845;DHT22;4961;50.782;6.080;2022-09-03T09:46:19;22.60;99.90
9845;DHT22;4961;50.782;6.080;2022-09-03T09:48:52;22.70;99.90
9845;DHT22;4961;50.782;6.080;2022-09-03T09:51:23;22.80;99.90
9845;DHT22;4961;50.782;6.080;2022-09-03T09:54:03;23.00;99.90
9845;DHT22;4961;50.782;6.080;2022-09-03T09:56:42;23.20;99.90
9845;DHT22;4961;50.782;6.080;2022-09-03T09:59:18;23.30;99.90
9845;DHT22;4961;50.782;6.080;2022-09-03T10:01:48;23.60;99.90
9845;DHT22;4961;50.782;6.080;2022-09-03T10:04:22;23.80;99.90
9845;DHT22;4961;50.782;6.080;2022-09-03T10:07:02;24.10;99.90
9845;DHT22;4961;50.782;6.080;2022-09-03T10:09:35;24.30;99.90
9845;DHT22;4961;50.782;6.080;2022-09-03T10:12:12;24.40;99.90
9845;DHT22;4961;50.782;6.080;2022-09-03T10:14:52;24.40;99.90
9845;DHT22;4961;50.782;6.080;2022-09-03T10:17:30;24.30;99.90
9845;DHT22;4961;50.782;6.080;2022-09-03T10:20:07;24.20;99.90
9845;DHT22;4961;50.782;6.080;2022-09-03T10:23:05;24.20;99.90
9845;DHT22;4961;50.782;6.080;2022-09-03T10:25:41;24.20;99.90
9845;DHT22;4961;50.782;6.080;2022-09-03T10:28:17;24.30;99.90
9845;DHT22;4961;50.782;6.080;2022-09-03T10:31:08;24.50;99.90
9845;DHT22;4961;50.782;6.080;2022-09-03T10:33:47;24.80;99.90
9845;DHT22;4961;50.782;6.080;2022-09-03T10:36:23;25.20;99.90
9845;DHT22;4961;50.782;6.080;2022-09-03T10:38:57;25.50;99.90
9845;DHT22;4961;50.782;6.080;2022-09-03T10:41:40;25.50;99.90
9845;DHT22;4961;50.782;6.080;2022-09-03T10:44:30;26.10;99.90
9845;DHT22;4961;50.782;6.080;2022-09-03T10:47:13;26.80;99.90
9845;DHT22;4961;50.782;6.080;2022-09-03T10:49:57;27.30;99.90
9845;DHT22;4961;50.782;6.080;2022-09-03T10:52:37;27.70;99.90
9845;DHT22;4961;50.782;6.080;2022-09-03T10:55:15;28.20;99.90
9845;DHT22;4961;50.782;6.080;2022-09-03T10:57:57;28.80;99.90
9845;DHT22;4961;50.782;6.080;2022-09-03T11:00:33;29.30;99.90
9845;DHT22;4961;50.782;6.080;2022-09-03T11:03:24;29.50;99.90
9845;DHT22;4961;50.782;6.080;2022-09-03T11:06:02;29.60;99.90
9845;DHT22;4961;50.782;6.080;2022-09-03T11:08:38;29.80;99.90
9845;DHT22;4961;50.782;6.080;2022-09-03T11:11:14;30.00;99.90
9845;DHT22;4961;50.782;6.080;2022-09-03T11:13:50;29.90;99.90
9845;DHT22;4961;50.782;6.080;2022-09-03T11:16:29;29.80;99.90
9845;DHT22;4961;50.782;6.080;2022-09-03T11:19:03;29.60;99.90
9845;DHT22;4961;50.782;6.080;2022-09-03T11:21:36;29.10;99.90
9845;DHT22;4961;50.782;6.080;2022-09-03T11:24:10;28.70;99.90
9845;DHT22;4961;50.782;6.080;2022-09-03T11:26:44;28.70;99.90
9845;DHT22;4961;50.782;6.080;2022-09-03T11:29:18;28.90;99.90
9845;DHT22;4961;50.782;6.080;2022-09-03T11:31:54;29.30;99.90
9845;DHT22;4961;50.782;6.080;2022-09-03T11:37:19;29.20;99.90
9845;DHT22;4961;50.782;6.080;2022-09-03T11:39:56;28.90;99.90
9845;DHT22;4961;50.782;6.080;2022-09-03T11:42:34;28.70;99.90
9845;DHT22;4961;50.782;6.080;2022-09-03T11:45:21;28.60;99.90
9845;DHT22;4961;50.782;6.080;2022-09-03T11:47:52;28.30;99.90
9845;DHT22;4961;50.782;6.080;2022-09-03T11:50:23;28.10;99.90
9845;DHT22;4961;50.782;6.080;2022-09-03T11:52:54;28.00;99.90
9845;DHT22;4961;50.782;6.080;2022-09-03T11:55:27;28.00;99.90
9845;DHT22;4961;50.782;6.080;2022-09-03T11:58:18;28.00;99.90
9845;DHT22;4961;50.782;6.080;2022-09-03T12:00:49;28.10;99.90
9845;DHT22;4961;50.782;6.080;2022-09-03T12:03:24;28.00;99.90
9845;DHT22;4961;50.782;6.080;2022-09-03T12:06:12;27.90;99.90
9845;DHT22;4961;50.782;6.080;2022-09-03T12:11:59;27.50;99.90
9845;DHT22;4961;50.782;6.080;2022-09-03T12:14:40;27.20;99.90
9845;DHT22;4961;50.782;6.080;2022-09-03T12:17:25;27.10;99.90
9845;DHT22;4961;50.782;6.080;2022-09-03T12:19:57;27.40;99.90
9845;DHT22;4961;50.782;6.080;2022-09-03T12:22:34;27.70;99.90
9845;DHT22;4961;50.782;6.080;2022-09-03T12:25:08;28.00;99.90
9845;DHT22;4961;50.782;6.080;2022-09-03T12:27:38;28.30;99.90
9845;DHT22;4961;50.782;6.080;2022-09-03T12:30:15;28.30;99.90
9845;DHT22;4961;50.782;6.080;2022-09-03T12:32:46;28.10;99.90
9845;DHT22;4961;50.782;6.080;2022-09-03T12:35:17;27.80;99.90
9845;DHT22;4961;50.782;6.080;2022-09-03T12:38:13;27.50;99.90
9845;DHT22;4961;50.782;6.080;2022-09-03T12:40:49;27.20;99.90
9845;DHT22;4961;50.782;6.080;2022-09-03T12:43:38;27.00;99.90
9845;DHT22;4961;50.782;6.080;2022-09-03T12:46:23;26.70;99.90
9845;DHT22;4961;50.782;6.080;2022-09-03T12:49:02;26.50;99.90
9845;DHT22;4961;50.782;6.080;2022-09-03T12:52:01;26.30;99.90
9845;DHT22;4961;50.782;6.080;2022-09-03T12:54:33;26.10;99.90
9845;DHT22;4961;50.782;6.080;2022-09-03T12:57:02;25.90;99.90
9845;DHT22;4961;50.782;6.080;2022-09-03T12:59:34;25.90;99.90
9845;DHT22;4961;50.782;6.080;2022-09-03T13:02:12;25.70;99.90
9845;DHT22;4961;50.782;6.080;2022-09-03T13:04:45;25.60;99.90
9845;DHT22;4961;50.782;6.080;2022-09-03T13:07:25;25.50;99.90
9845;DHT22;4961;50.782;6.080;2022-09-03T13:10:02;25.40;99.90
9845;DHT22;4961;50.782;6.080;2022-09-03T13:12:42;25.30;99.90
9845;DHT22;4961;50.782;6.080;2022-09-03T13:15:22;25.30;99.90
9845;DHT22;4961;50.782;6.080;2022-09-03T13:18:01;25.30;99.90
9845;DHT22;4961;50.782;6.080;2022-09-03T13:20:44;25.30;99.90
9845;DHT22;4961;50.782;6.080;2022-09-03T13:23:33;25.20;99.90
9845;DHT22;4961;50.782;6.080;2022-09-03T13:26:12;25.30;99.90
9845;DHT22;4961;50.782;6.080;2022-09-03T13:28:57;25.40;99.90
9845;DHT22;4961;50.782;6.080;2022-09-03T13:31:31;25.50;99.90
9845;DHT22;4961;50.782;6.080;2022-09-03T13:34:04;25.60;99.90
9845;DHT22;4961;50.782;6.080;2022-09-03T13:36:43;26.00;99.90
9845;DHT22;4961;50.782;6.080;2022-09-03T13:39:20;26.20;99.90
9845;DHT22;4961;50.782;6.080;2022-09-03T13:41:51;26.30;99.90
9845;DHT22;4961;50.782;6.080;2022-09-03T13:44:35;26.30;99.90
9845;DHT22;4961;50.782;6.080;2022-09-03T13:47:11;26.20;99.90
9845;DHT22;4961;50.782;6.080;2022-09-03T13:49:50;26.00;99.90
9845;DHT22;4961;50.782;6.080;2022-09-03T13:52:46;25.80;99.90
9845;DHT22;4961;50.782;6.080;2022-09-03T13:55:20;25.60;99.90
9845;DHT22;4961;50.782;6.080;2022-09-03T13:57:54;25.50;99.90
9845;DHT22;4961;50.782;6.080;2022-09-03T14:00:32;25.40;99.90
9845;DHT22;4961;50.782;6.080;2022-09-03T14:03:09;25.30;99.90
9845;DHT22;4961;50.782;6.080;2022-09-03T14:05:53;25.20;99.90
9845;DHT22;4961;50.782;6.080;2022-09-03T14:08:34;25.10;99.90
9845;DHT22;4961;50.782;6.080;2022-09-03T14:11:18;25.10;99.90
9845;DHT22;4961;50.782;6.080;2022-09-03T14:14:02;25.00;99.90
9845;DHT22;4961;50.782;6.080;2022-09-03T14:16:38;24.90;99.90
9845;DHT22;4961;50.782;6.080;2022-09-03T14:19:14;24.80;99.90
9845;DHT22;4961;50.782;6.080;2022-09-03T14:21:46;24.70;99.90
9845;DHT22;4961;50.782;6.080;2022-09-03T14:24:24;24.60;99.90
9845;DHT22;4961;50.782;6.080;2022-09-03T14:26:55;24.50;99.90
9845;DHT22;4961;50.782;6.080;2022-09-03T14:29:28;24.40;99.90
9845;DHT22;4961;50.782;6.080;2022-09-03T14:32:08;24.00;99.90
9845;DHT22;4961;50.782;6.080;2022-09-03T14:34:50;23.70;99.90
9845;DHT22;4961;50.782;6.080;2022-09-03T14:37:44;23.50;99.90
9845;DHT22;4961;50.782;6.080;2022-09-03T14:40:17;23.40;99.90
9845;DHT22;4961;50.782;6.080;2022-09-03T14:43:10;23.30;99.90
9845;DHT22;4961;50.782;6.080;2022-09-03T14:45:55;23.30;99.90
9845;DHT22;4961;50.782;6.080;2022-09-03T14:51:38;23.10;99.90
9845;DHT22;4961;50.782;6.080;2022-09-03T14:54:41;23.10;99.90
9845;DHT22;4961;50.782;6.080;2022-09-03T14:57:34;23.10;99.90
9845;DHT22;4961;50.782;6.080;2022-09-03T15:00:07;23.20;99.90
9845;DHT22;4961;50.782;6.080;2022-09-03T15:03:10;23.30;99.90
9845;DHT22;4961;50.782;6.080;2022-09-03T15:06:00;23.40;99.90
9845;DHT22;4961;50.782;6.080;2022-09-03T15:08:42;23.60;99.90
9845;DHT22;4961;50.782;6.080;2022-09-03T15:11:15;23.80;99.90
9845;DHT22;4961;50.782;6.080;2022-09-03T15:13:50;24.00;99.90
9845;DHT22;4961;50.782;6.080;2022-09-03T15:16:35;24.10;99.90
9845;DHT22;4961;50.782;6.080;2022-09-03T15:19:27;24.30;99.90
9845;DHT22;4961;50.782;6.080;2022-09-03T15:22:11;24.40;99.90
9845;DHT22;4961;50.782;6.080;2022-09-03T15:24:50;24.50;99.90
9845;DHT22;4961;50.782;6.080;2022-09-03T15:27:39;24.70;99.90
9845;DHT22;4961;50.782;6.080;2022-09-03T15:30:18;24.90;99.90
9845;DHT22;4961;50.782;6.080;2022-09-03T15:32:57;25.10;99.90
9845;DHT22;4961;50.782;6.080;2022-09-03T15:35:55;25.20;99.90
9845;DHT22;4961;50.782;6.080;2022-09-03T15:38:40;25.30;99.90
9845;DHT22;4961;50.782;6.080;2022-09-03T15:41:30;25.30;99.90
9845;DHT22;4961;50.782;6.080;2022-09-03T15:44:10;25.30;99.90
9845;DHT22;4961;50.782;6.080;2022-09-03T15:47:03;25.30;99.90
9845;DHT22;4961;50.782;6.080;2022-09-03T15:49:46;25.30;99.90
9845;DHT22;4961;50.782;6.080;2022-09-03T15:52:30;25.20;99.90
9845;DHT22;4961;50.782;6.080;2022-09-03T15:55:08;25.20;99.90
9845;DHT22;4961;50.782;6.080;2022-09-03T15:57:45;25.10;99.90
9845;DHT22;4961;50.782;6.080;2022-09-03T16:00:20;25.10;99.90
9845;DHT22;4961;50.782;6.080;2022-09-03T16:02:59;25.00;99.90
9845;DHT22;4961;50.782;6.080;2022-09-03T16:05:39;24.90;99.90
9845;DHT22;4961;50.782;6.080;2022-09-03T16:08:18;24.90;99.90
9845;DHT22;4961;50.782;6.080;2022-09-03T16:10:56;24.90;99.90
9845;DHT22;4961;50.782;6.080;2022-09-03T16:13:43;24.80;99.90
9845;DHT22;4961;50.782;6.080;2022-09-03T16:16:20;24.80;99.90
9845;DHT22;4961;50.782;6.080;2022-09-03T16:19:03;24.80;99.90
9845;DHT22;4961;50.782;6.080;2022-09-03T16:21:37;24.80;99.90
9845;DHT22;4961;50.782;6.080;2022-09-03T16:24:16;24.80;99.90
9845;DHT22;4961;50.782;6.080;2022-09-03T16:26:50;24.80;99.90
9845;DHT22;4961;50.782;6.080;2022-09-03T16:29:25;24.80;99.90
9845;DHT22;4961;50.782;6.080;2022-09-03T16:32:09;24.80;99.90
9845;DHT22;4961;50.782;6.080;2022-09-03T16:34:49;24.80;99.90
9845;DHT22;4961;50.782;6.080;2022-09-03T16:37:29;24.70;99.90
9845;DHT22;4961;50.782;6.080;2022-09-03T16:40:11;24.70;99.90
9845;DHT22;4961;50.782;6.080;2022-09-03T16:42:51;24.70;99.90
9845;DHT22;4961;50.782;6.080;2022-09-03T16:45:31;24.70;99.90
9845;DHT22;4961;50.782;6.080;2022-09-03T16:48:14;24.60;99.90
9845;DHT22;4961;50.782;6.080;2022-09-03T16:51:03;24.50;99.90
9845;DHT22;4961;50.782;6.080;2022-09-03T16:53:45;24.50;99.90
9845;DHT22;4961;50.782;6.080;2022-09-03T16:56:36;24.40;99.90
9845;DHT22;4961;50.782;6.080;2022-09-03T16:59:14;24.30;99.90
9845;DHT22;4961;50.782;6.080;2022-09-03T17:01:55;24.30;99.90
9845;DHT22;4961;50.782;6.080;2022-09-03T17:05:08;24.30;99.90
9845;DHT22;4961;50.782;6.080;2022-09-03T17:07:58;24.10;99.90
9845;DHT22;4961;50.782;6.080;2022-09-03T17:10:38;24.00;99.90